Terminal Aerodrome Forecast
Issued by NWS

Home | Current Version | Previous Version | Text Only | Print | Product List | Glossary On
Versions: 1 2 3 4 5 6 7 8 9 10 11 12 13 14
000
FTAK31 PAFA 020105 AAA
TAFAFA
TAF AMD
PAFA 020105Z 0201/0306 28007KT P6SM -SHRA BKN080 BKN100 BKN250
     FM020300 30005KT P6SM SCT080 BKN100 BKN250
     FM020800 VRB03KT P6SM SCT060 BKN200
     FM022300 VRB04KT P6SM -SHRA BKN060=

USA.gov is the U.S. government's official web portal to all federal, state and local government web resources and services.